< Typhoon 197009 1970 Season Typhoon 197011 >
Typhoon 197010 (ANITA)
General InformationTrack Information on Google Maps || NewsDisaster Info.ResourceGoogle EarthGE AnimationAtom FeedGeoJSON
Detalied Best Track (Time Zone = UTC)
Year Month Day Hour Lat. Long. Pressure (hPa) Wind (kt) Class Image Chart
1970 8 15 00 17.0 148.0 1006 0 2 -- Chart
1970 8 15 06 17.4 147.0 1006 0 2 -- Chart
1970 8 15 12 18.0 145.8 1006 0 2 -- Chart
1970 8 15 18 18.7 144.8 1006 0 2 -- Chart
1970 8 16 00 19.5 143.8 1000 0 2 -- Chart
1970 8 16 06 19.6 142.9 995 0 9 -- Chart
1970 8 16 12 19.6 142.1 995 0 9 -- Chart
1970 8 16 18 19.7 141.6 985 0 9 -- Chart
1970 8 17 00 19.8 141.0 980 0 9 -- Chart
1970 8 17 06 20.5 140.2 975 0 9 -- Chart
1970 8 17 12 21.0 139.6 975 0 9 -- Chart
1970 8 17 18 21.1 139.2 970 0 9 -- Chart
1970 8 18 00 21.1 138.9 970 0 9 -- Chart
1970 8 18 06 21.1 138.7 965 0 9 -- Chart
1970 8 18 12 21.7 138.4 965 0 9 -- Chart
1970 8 18 18 22.4 138.0 955 0 9 -- Chart
1970 8 19 00 23.2 137.6 935 0 9 -- Chart
1970 8 19 06 24.0 137.2 925 0 9 -- Chart
1970 8 19 12 24.7 136.9 920 0 9 -- Chart
1970 8 19 18 25.7 136.7 910 0 9 -- Chart
1970 8 20 00 27.1 136.0 915 0 9 -- Chart
1970 8 20 06 28.7 135.5 930 0 9 -- Chart
1970 8 20 12 30.2 134.7 940 0 9 -- Chart
1970 8 20 18 31.4 134.1 950 0 9 -- Chart
1970 8 21 00 33.3 133.0 960 0 9 -- Chart
1970 8 21 06 35.3 132.4 975 0 9 -- Chart
1970 8 21 12 36.6 132.6 975 0 9 -- Chart
1970 8 21 18 38.6 133.5 980 0 9 -- Chart
1970 8 22 00 40.5 135.0 980 0 9 -- Chart
1970 8 22 06 42.5 136.5 985 0 9 -- Chart
1970 8 22 12 44.4 138.9 990 0 9 -- Chart
1970 8 22 18 46.4 142.6 1000 0 6 -- Chart
1970 8 23 00 48.5 146.0 1000 0 6 -- Chart
1970 8 23 06 50.0 149.0 1000 0 6 -- Chart
1970 8 23 12 51.0 153.1 1002 0 6 -- Chart
1970 8 23 18 52.0 159.0 1002 0 6 -- Chart
1970 8 24 00 51.9 162.4 1002 0 6 -- Chart
1970 8 24 06 50.9 166.0 1002 0 6 -- Chart
Japan Meteorological Agency Best Track Data | Correction Date : 1989-06-01
< Typhoon 197009 1970 Season Typhoon 197011 >

Help